createdAt,value
2023-06-09T00:00:08.781Z,3.50
2023-06-09T00:02:37.032Z,3.20
2023-06-09T00:05:05.920Z,3.30
2023-06-09T00:07:37.334Z,3.90
2023-06-09T00:10:06.210Z,3.50
2023-06-09T00:12:34.058Z,3.70
2023-06-09T00:15:01.990Z,3.60
2023-06-09T00:17:31.252Z,3.50
2023-06-09T00:20:04.718Z,3.70
2023-06-09T00:22:32.937Z,4.20
2023-06-09T00:26:08.388Z,3.80
2023-06-09T00:29:53.142Z,3.60
2023-06-09T00:32:29.973Z,3.90
2023-06-09T00:34:57.851Z,3.80
2023-06-09T00:37:25.881Z,3.90
2023-06-09T00:39:53.858Z,3.90
2023-06-09T00:42:21.635Z,3.50
2023-06-09T00:44:49.637Z,3.60
2023-06-09T00:47:18.564Z,3.80
2023-06-09T00:49:47.091Z,3.80
2023-06-09T00:52:16.822Z,3.80
2023-06-09T00:54:45.160Z,3.50
2023-06-09T00:57:13.802Z,4.30
2023-06-09T00:59:41.739Z,3.80
2023-06-09T01:02:10.124Z,3.40
2023-06-09T01:04:38.090Z,3.70
2023-06-09T01:07:22.159Z,3.70
2023-06-09T01:10:10.584Z,3.60
2023-06-09T01:13:02.316Z,4.10
2023-06-09T01:15:38.774Z,3.60
2023-06-09T01:18:14.153Z,3.70
2023-06-09T01:20:46.013Z,3.80
2023-06-09T01:23:40.602Z,3.60
2023-06-09T01:26:09.989Z,3.40
2023-06-09T01:28:39.396Z,3.70
2023-06-09T01:31:09.620Z,3.40
2023-06-09T01:33:38.164Z,3.70
2023-06-09T01:36:07.127Z,3.10
2023-06-09T01:38:35.216Z,3.60
2023-06-09T01:41:05.096Z,3.20
2023-06-09T01:43:33.035Z,3.40
2023-06-09T01:46:01.231Z,3.50
2023-06-09T01:49:07.611Z,3.40
2023-06-09T01:51:42.643Z,3.40
2023-06-09T01:54:22.269Z,3.70
2023-06-09T01:57:06.735Z,3.30
2023-06-09T01:59:48.912Z,3.30
2023-06-09T02:02:20.467Z,3.50
2023-06-09T02:04:53.570Z,3.80
2023-06-09T02:07:23.081Z,3.50
2023-06-09T02:09:51.846Z,3.20
2023-06-09T02:12:19.835Z,3.40
2023-06-09T02:14:47.728Z,3.80
2023-06-09T02:17:16.876Z,3.30
2023-06-09T02:19:46.624Z,3.50
2023-06-09T02:22:14.519Z,3.40
2023-06-09T02:24:42.290Z,3.50
2023-06-09T02:27:10.170Z,3.20
2023-06-09T02:29:37.996Z,3.00
2023-06-09T02:32:06.422Z,3.50
2023-06-09T02:34:34.272Z,3.00
2023-06-09T02:37:03.516Z,3.50
2023-06-09T02:39:31.358Z,3.70
2023-06-09T02:41:59.772Z,3.20
2023-06-09T02:44:27.625Z,3.00
2023-06-09T02:46:56.015Z,3.30
2023-06-09T02:49:23.850Z,3.50
2023-06-09T02:51:51.684Z,3.50
2023-06-09T02:54:19.583Z,3.50
2023-06-09T02:56:47.588Z,3.50
2023-06-09T02:59:15.664Z,3.30
2023-06-09T03:01:44.035Z,3.20
2023-06-09T03:04:13.869Z,3.30
2023-06-09T03:06:44.634Z,3.20
2023-06-09T03:09:14.335Z,3.70
2023-06-09T03:11:42.469Z,3.60
2023-06-09T03:14:10.306Z,2.80
2023-06-09T03:16:38.233Z,3.20
2023-06-09T03:19:06.789Z,3.60
2023-06-09T03:21:36.766Z,3.50
2023-06-09T03:24:07.492Z,3.00
2023-06-09T03:26:35.486Z,3.40
2023-06-09T03:29:03.414Z,3.30
2023-06-09T03:31:31.433Z,3.60
2023-06-09T03:33:59.430Z,3.70
2023-06-09T03:36:28.358Z,3.40
2023-06-09T03:38:56.316Z,3.70
2023-06-09T03:41:24.069Z,3.60
2023-06-09T03:43:52.158Z,3.40
2023-06-09T03:46:20.180Z,3.30
2023-06-09T03:48:48.495Z,3.20
2023-06-09T03:51:17.530Z,3.00
2023-06-09T03:53:45.735Z,3.00
2023-06-09T03:56:15.100Z,3.10
2023-06-09T03:58:42.918Z,3.20
2023-06-09T04:01:12.246Z,2.80
2023-06-09T04:03:40.675Z,2.70
2023-06-09T04:06:08.609Z,2.90
2023-06-09T04:08:36.456Z,2.80
2023-06-09T04:11:04.294Z,3.00
2023-06-09T04:13:32.185Z,3.10
2023-06-09T04:16:00.066Z,3.00
2023-06-09T04:18:27.946Z,2.90
2023-06-09T04:20:55.790Z,2.80
2023-06-09T04:23:23.714Z,3.10
2023-06-09T04:25:54.683Z,3.00
2023-06-09T04:28:22.680Z,3.20
2023-06-09T04:30:51.428Z,3.40
2023-06-09T04:33:19.683Z,3.00
2023-06-09T04:35:48.103Z,3.10
2023-06-09T04:38:18.333Z,3.30
2023-06-09T04:40:47.026Z,3.20
2023-06-09T04:43:15.261Z,3.30
2023-06-09T04:45:44.664Z,3.40
2023-06-09T04:48:14.025Z,2.90
2023-06-09T04:50:46.074Z,3.40
2023-06-09T04:53:14.158Z,3.60
2023-06-09T04:55:42.804Z,3.10
2023-06-09T04:58:10.623Z,3.10
2023-06-09T05:00:38.599Z,2.90
2023-06-09T05:03:06.707Z,3.00
2023-06-09T05:05:34.616Z,3.30
2023-06-09T05:08:02.542Z,3.40
2023-06-09T05:10:30.558Z,3.40
2023-06-09T05:12:58.436Z,3.40
2023-06-09T05:15:27.732Z,3.50
2023-06-09T05:17:55.950Z,3.10
2023-06-09T05:20:23.885Z,3.20
2023-06-09T05:22:51.730Z,3.80
2023-06-09T05:25:20.427Z,3.40
2023-06-09T05:27:48.347Z,3.40
2023-06-09T05:30:16.344Z,3.50
2023-06-09T05:32:44.388Z,3.40
2023-06-09T05:35:15.472Z,3.60
2023-06-09T05:37:53.087Z,3.30
2023-06-09T05:40:21.495Z,3.40
2023-06-09T05:42:51.109Z,3.40
2023-06-09T05:45:19.044Z,3.40
2023-06-09T05:47:47.309Z,3.30
2023-06-09T05:50:15.462Z,3.00
2023-06-09T05:52:43.621Z,3.50
2023-06-09T05:55:12.108Z,3.60
2023-06-09T05:57:41.645Z,3.60
2023-06-09T06:00:11.063Z,3.60
2023-06-09T06:02:40.020Z,3.20
2023-06-09T06:05:09.312Z,3.50
2023-06-09T06:07:38.460Z,3.60
2023-06-09T06:10:08.167Z,3.30
2023-06-09T06:12:36.527Z,3.60
2023-06-09T06:15:05.057Z,3.80
2023-06-09T06:17:32.953Z,3.50
2023-06-09T06:20:00.966Z,3.50
2023-06-09T06:22:29.041Z,3.60
2023-06-09T06:24:57.655Z,3.70
2023-06-09T06:27:25.987Z,3.50
2023-06-09T06:29:54.067Z,4.20
2023-06-09T06:32:22.119Z,4.00
2023-06-09T06:34:50.320Z,3.90
2023-06-09T06:37:19.410Z,3.50
2023-06-09T06:39:47.245Z,4.00
2023-06-09T06:42:15.121Z,4.00
2023-06-09T06:44:43.104Z,3.80
2023-06-09T06:47:11.530Z,3.90
2023-06-09T06:49:39.623Z,3.80
2023-06-09T06:52:07.441Z,4.00
2023-06-09T06:54:35.357Z,4.00
2023-06-09T06:57:03.855Z,4.00
2023-06-09T06:59:31.605Z,4.10
2023-06-09T07:01:59.421Z,4.10
2023-06-09T07:04:27.460Z,4.20
2023-06-09T07:06:55.648Z,3.90
2023-06-09T07:09:24.915Z,3.90
2023-06-09T07:11:58.129Z,3.80
2023-06-09T07:14:25.915Z,3.90
2023-06-09T07:16:53.924Z,5.00
2023-06-09T07:19:21.727Z,4.00
2023-06-09T07:21:49.681Z,3.90
2023-06-09T07:24:17.679Z,3.70
2023-06-09T07:26:45.664Z,3.50
2023-06-09T07:29:13.915Z,3.90
2023-06-09T07:31:41.807Z,4.50
2023-06-09T07:34:09.904Z,3.90
2023-06-09T07:36:38.736Z,3.60
2023-06-09T07:39:07.055Z,4.20
2023-06-09T07:41:35.120Z,4.20
2023-06-09T07:44:04.046Z,4.10
2023-06-09T07:46:33.322Z,4.00
2023-06-09T07:49:01.959Z,4.00
2023-06-09T07:51:30.381Z,3.40
2023-06-09T07:53:58.301Z,3.90
2023-06-09T07:56:26.179Z,4.00
2023-06-09T07:58:54.231Z,4.10
2023-06-09T08:01:22.241Z,4.50
2023-06-09T08:03:50.376Z,4.00
2023-06-09T08:06:18.489Z,3.90
2023-06-09T08:08:46.458Z,3.80
2023-06-09T08:11:14.430Z,4.20
2023-06-09T08:13:42.364Z,4.20
2023-06-09T08:16:10.375Z,4.60
2023-06-09T08:18:38.398Z,4.20
2023-06-09T08:21:06.732Z,3.80
2023-06-09T08:23:35.274Z,4.20
2023-06-09T08:26:03.698Z,4.20
2023-06-09T08:28:32.132Z,4.50
2023-06-09T08:31:00.902Z,4.60
2023-06-09T08:33:30.977Z,4.10
2023-06-09T08:35:59.987Z,4.60
2023-06-09T08:38:29.289Z,4.50
2023-06-09T08:41:12.622Z,4.50
2023-06-09T08:43:40.878Z,4.10
2023-06-09T08:46:13.919Z,4.00
2023-06-09T08:48:52.706Z,4.10
2023-06-09T08:51:23.541Z,4.10
2023-06-09T08:53:56.551Z,4.00
2023-06-09T08:56:24.913Z,4.90
2023-06-09T08:58:53.863Z,4.50
2023-06-09T09:01:22.564Z,4.50
2023-06-09T09:03:51.819Z,4.70
2023-06-09T09:06:21.560Z,4.50
2023-06-09T09:08:51.719Z,4.50
2023-06-09T09:11:20.041Z,4.30
2023-06-09T09:13:51.339Z,4.30
2023-06-09T09:16:20.377Z,4.30
2023-06-09T09:18:49.505Z,4.80
2023-06-09T09:21:25.664Z,4.60
2023-06-09T09:24:05.750Z,4.40
2023-06-09T09:26:35.348Z,4.30
2023-06-09T09:29:08.142Z,4.30
2023-06-09T09:31:40.970Z,4.60
2023-06-09T09:34:14.677Z,4.50
2023-06-09T09:36:49.288Z,4.40
2023-06-09T09:39:17.945Z,5.20
2023-06-09T09:42:11.726Z,4.80
2023-06-09T09:44:44.838Z,5.00
2023-06-09T09:47:14.691Z,4.40
2023-06-09T09:50:00.172Z,4.80
2023-06-09T09:52:35.607Z,4.40
2023-06-09T09:55:09.959Z,4.60
2023-06-09T09:57:41.098Z,4.70
2023-06-09T10:00:13.998Z,4.40
2023-06-09T10:02:47.215Z,4.90
2023-06-09T10:05:17.549Z,4.40
2023-06-09T10:07:53.290Z,4.70
2023-06-09T10:10:21.896Z,4.60
2023-06-09T10:12:53.091Z,4.70
2023-06-09T10:15:22.347Z,4.50
2023-06-09T10:17:56.944Z,4.40
2023-06-09T10:20:25.399Z,4.70
2023-06-09T10:22:54.567Z,4.30
2023-06-09T10:25:25.512Z,4.80
2023-06-09T10:27:53.874Z,4.70
2023-06-09T10:30:22.611Z,4.60
2023-06-09T10:33:15.926Z,4.50
2023-06-09T10:35:48.837Z,4.20
2023-06-09T10:38:43.384Z,4.60
2023-06-09T10:41:35.562Z,4.40
2023-06-09T10:44:38.078Z,4.30
2023-06-09T10:47:06.496Z,4.10
2023-06-09T10:49:39.352Z,4.90
2023-06-09T10:52:29.556Z,4.50
2023-06-09T10:55:16.389Z,4.30
2023-06-09T10:57:44.620Z,4.50
2023-06-09T11:00:13.531Z,4.60
2023-06-09T11:02:50.352Z,4.60
2023-06-09T11:05:21.869Z,4.50
2023-06-09T11:08:04.828Z,4.50
2023-06-09T11:10:33.380Z,4.40
2023-06-09T11:13:03.747Z,4.10
2023-06-09T11:16:02.466Z,4.60
2023-06-09T11:18:32.837Z,4.30
2023-06-09T11:21:21.437Z,4.40
2023-06-09T11:24:05.436Z,3.90
2023-06-09T11:26:35.292Z,4.70
2023-06-09T11:29:05.400Z,4.50
2023-06-09T11:31:49.439Z,4.00
2023-06-09T11:34:51.410Z,4.10
2023-06-09T11:37:21.915Z,4.30
2023-06-09T11:39:51.483Z,3.80
2023-06-09T11:42:20.268Z,4.20
2023-06-09T11:44:49.123Z,3.80
2023-06-09T11:47:31.259Z,3.90
2023-06-09T11:50:20.290Z,3.90
2023-06-09T11:52:48.873Z,4.50
2023-06-09T11:55:16.846Z,4.10
2023-06-09T11:57:44.826Z,4.50
2023-06-09T12:00:20.944Z,4.70
2023-06-09T12:02:51.125Z,4.10
2023-06-09T12:05:20.516Z,4.50
2023-06-09T12:07:50.559Z,4.50
2023-06-09T12:10:23.393Z,4.00
2023-06-09T12:12:54.505Z,4.80
2023-06-09T12:15:24.908Z,4.90
2023-06-09T12:17:56.005Z,3.80
2023-06-09T12:20:30.080Z,3.90
2023-06-09T12:23:04.214Z,4.30
2023-06-09T12:25:36.446Z,4.20
2023-06-09T12:28:29.006Z,4.60
2023-06-09T12:31:19.879Z,3.80
2023-06-09T12:33:50.372Z,3.80
2023-06-09T12:36:20.454Z,4.30
2023-06-09T12:38:50.180Z,3.50
2023-06-09T12:41:19.408Z,3.70
2023-06-09T12:43:52.941Z,3.70
2023-06-09T12:46:41.767Z,3.60
2023-06-09T12:49:11.865Z,3.20
2023-06-09T12:51:43.634Z,3.90
2023-06-09T12:54:14.391Z,3.90
2023-06-09T12:56:42.292Z,3.40
2023-06-09T12:59:10.871Z,3.40
2023-06-09T13:01:39.841Z,3.20
2023-06-09T13:04:08.339Z,3.30
2023-06-09T13:06:37.683Z,3.10
2023-06-09T13:09:05.619Z,3.20
2023-06-09T13:11:33.569Z,3.10
2023-06-09T13:14:02.824Z,3.30
2023-06-09T13:16:32.715Z,4.00
2023-06-09T13:19:01.112Z,2.60
2023-06-09T13:21:43.705Z,3.40
2023-06-09T13:24:13.672Z,3.40
2023-06-09T13:26:42.299Z,2.80
2023-06-09T13:29:10.554Z,3.20
2023-06-09T13:31:38.668Z,3.10
2023-06-09T13:34:06.744Z,3.20
2023-06-09T13:36:35.339Z,3.10
2023-06-09T13:39:04.174Z,3.00
2023-06-09T13:41:32.308Z,3.10
2023-06-09T13:44:00.695Z,2.90
2023-06-09T13:46:28.696Z,2.90
2023-06-09T13:48:56.602Z,2.70
2023-06-09T13:51:24.664Z,2.50
2023-06-09T13:53:52.469Z,2.70
2023-06-09T13:56:22.465Z,3.10
2023-06-09T13:58:50.657Z,2.60
2023-06-09T14:01:18.854Z,2.80
2023-06-09T14:03:47.337Z,3.00
2023-06-09T14:06:15.553Z,2.50
2023-06-09T14:08:43.512Z,2.90
2023-06-09T14:11:11.436Z,2.60
2023-06-09T14:13:39.452Z,3.00
2023-06-09T14:16:07.364Z,2.90
2023-06-09T14:18:35.837Z,2.50
2023-06-09T14:21:04.977Z,2.60
2023-06-09T14:23:33.171Z,2.50
2023-06-09T14:26:01.198Z,2.50
2023-06-09T14:28:29.035Z,2.70
2023-06-09T14:30:57.380Z,2.60
2023-06-09T14:33:25.295Z,2.50
2023-06-09T14:35:53.221Z,2.80
2023-06-09T14:38:21.320Z,2.90
2023-06-09T14:40:49.247Z,2.60
2023-06-09T14:43:17.287Z,2.40
2023-06-09T14:45:45.198Z,2.80
2023-06-09T14:48:13.244Z,2.40
2023-06-09T14:50:45.725Z,2.50
2023-06-09T14:53:15.284Z,2.50
2023-06-09T14:55:48.838Z,3.00
2023-06-09T14:58:20.010Z,2.70
2023-06-09T15:00:48.370Z,2.40
2023-06-09T15:03:18.287Z,2.70
2023-06-09T15:05:47.497Z,2.30
2023-06-09T15:08:15.780Z,2.70
2023-06-09T15:10:46.761Z,3.10
2023-06-09T15:13:17.477Z,2.70
2023-06-09T15:15:49.100Z,2.50
2023-06-09T15:18:17.111Z,2.70
2023-06-09T15:20:45.317Z,3.40
2023-06-09T15:23:14.266Z,2.50
2023-06-09T15:25:45.582Z,2.70
2023-06-09T15:28:16.659Z,2.40
2023-06-09T15:30:48.954Z,2.40
2023-06-09T15:33:22.665Z,2.50
2023-06-09T15:35:54.291Z,2.60
2023-06-09T15:38:27.971Z,2.20
2023-06-09T15:40:57.880Z,2.20
2023-06-09T15:43:38.202Z,2.60
2023-06-09T15:46:06.386Z,2.30
2023-06-09T15:48:34.743Z,2.70
2023-06-09T15:51:02.773Z,2.90
2023-06-09T15:53:30.723Z,2.70
2023-06-09T15:55:58.636Z,2.50
2023-06-09T15:58:26.497Z,3.00
2023-06-09T16:00:54.346Z,2.70
2023-06-09T16:03:22.447Z,2.50
2023-06-09T16:05:50.569Z,2.10
2023-06-09T16:08:20.217Z,3.20
2023-06-09T16:10:52.471Z,3.00
2023-06-09T16:13:22.378Z,2.40
2023-06-09T16:15:52.008Z,2.70
2023-06-09T16:18:22.995Z,2.30
2023-06-09T16:20:51.391Z,2.00
2023-06-09T16:23:19.347Z,2.30
2023-06-09T16:25:47.229Z,2.60
2023-06-09T16:28:16.309Z,2.20
2023-06-09T16:30:44.922Z,2.80
2023-06-09T16:33:13.724Z,2.30
2023-06-09T16:35:41.670Z,2.60
2023-06-09T16:38:09.598Z,2.10
2023-06-09T16:40:40.234Z,2.90
2023-06-09T16:43:08.286Z,2.40
2023-06-09T16:45:36.197Z,2.60
2023-06-09T16:48:04.620Z,2.10
2023-06-09T16:50:32.624Z,2.70
2023-06-09T16:53:01.218Z,2.40
2023-06-09T16:55:29.174Z,2.50
2023-06-09T16:57:57.192Z,2.40
2023-06-09T17:00:25.067Z,2.00
2023-06-09T17:02:55.775Z,1.90
2023-06-09T17:05:24.774Z,2.40
2023-06-09T17:07:52.945Z,2.20
2023-06-09T17:10:21.255Z,2.10
2023-06-09T17:12:49.738Z,2.20
2023-06-09T17:15:17.902Z,2.30
2023-06-09T17:17:45.846Z,2.00
2023-06-09T17:20:14.068Z,2.10
2023-06-09T17:22:43.205Z,2.10
2023-06-09T17:25:11.363Z,1.90
2023-06-09T17:27:39.754Z,1.80
2023-06-09T17:30:14.359Z,2.30
2023-06-09T17:32:45.359Z,2.30
2023-06-09T17:35:14.362Z,1.90
2023-06-09T17:37:43.681Z,2.00
2023-06-09T17:40:13.275Z,2.10
2023-06-09T17:42:42.263Z,2.00
2023-06-09T17:45:12.687Z,1.70
2023-06-09T17:47:41.024Z,2.00
2023-06-09T17:50:10.122Z,1.60
2023-06-09T17:52:38.193Z,2.00
2023-06-09T17:55:07.208Z,1.80
2023-06-09T17:57:35.664Z,1.90
2023-06-09T18:00:06.749Z,1.90
2023-06-09T18:02:34.914Z,1.90
2023-06-09T18:05:04.521Z,1.80
2023-06-09T18:07:32.875Z,1.80
2023-06-09T18:10:03.087Z,1.80
2023-06-09T18:12:31.156Z,1.80
2023-06-09T18:14:59.438Z,1.70
2023-06-09T18:17:27.356Z,1.70
2023-06-09T18:19:56.325Z,2.20
2023-06-09T18:22:25.933Z,1.70
2023-06-09T18:24:53.891Z,1.40
2023-06-09T18:27:21.825Z,1.60
2023-06-09T18:29:49.691Z,1.90
2023-06-09T18:32:18.069Z,2.00
2023-06-09T18:34:49.873Z,1.50
2023-06-09T18:37:18.379Z,1.70
2023-06-09T18:39:46.439Z,2.20
2023-06-09T18:42:15.537Z,1.80
2023-06-09T18:44:44.049Z,1.80
2023-06-09T18:47:13.011Z,1.90
2023-06-09T18:49:41.141Z,1.60
2023-06-09T18:52:09.558Z,1.70
2023-06-09T18:54:37.610Z,1.50
2023-06-09T18:57:08.155Z,2.20
2023-06-09T18:59:36.182Z,1.80
2023-06-09T19:02:04.519Z,1.40
2023-06-09T19:04:32.396Z,1.50
2023-06-09T19:07:00.437Z,1.40
2023-06-09T19:09:28.378Z,1.70
2023-06-09T19:11:56.498Z,1.40
2023-06-09T19:14:24.526Z,1.30
2023-06-09T19:16:52.464Z,1.40
2023-06-09T19:19:20.750Z,1.50
2023-06-09T19:21:50.034Z,1.50
2023-06-09T19:24:18.150Z,1.90
2023-06-09T19:26:46.608Z,1.90
2023-06-09T19:29:14.526Z,1.50
2023-06-09T19:31:42.730Z,1.60
2023-06-09T19:34:11.257Z,1.50
2023-06-09T19:36:39.241Z,1.60
2023-06-09T19:39:07.802Z,1.50
2023-06-09T19:41:35.816Z,1.70
2023-06-09T19:44:03.916Z,1.50
2023-06-09T19:46:32.084Z,1.40
2023-06-09T19:49:03.373Z,1.50
2023-06-09T19:51:31.287Z,1.80
2023-06-09T19:54:00.406Z,1.60
2023-06-09T19:56:29.541Z,1.30
2023-06-09T19:58:57.406Z,1.60
2023-06-09T20:01:25.282Z,1.30
2023-06-09T20:03:53.228Z,1.50
2023-06-09T20:06:21.409Z,1.20
2023-06-09T20:08:49.424Z,1.30
2023-06-09T20:11:17.766Z,1.30
2023-06-09T20:13:47.997Z,1.70
2023-06-09T20:16:16.376Z,1.70
2023-06-09T20:18:44.267Z,1.10
2023-06-09T20:21:12.202Z,1.50
2023-06-09T20:23:43.736Z,1.60
2023-06-09T20:26:12.978Z,1.70
2023-06-09T20:28:43.366Z,1.70
2023-06-09T20:31:11.865Z,1.30
2023-06-09T20:33:49.448Z,1.80
2023-06-09T20:36:17.778Z,1.40
2023-06-09T20:38:46.074Z,1.40
2023-06-09T20:41:14.013Z,1.70
2023-06-09T20:43:41.920Z,1.70
2023-06-09T20:46:11.107Z,1.60
2023-06-09T20:48:40.229Z,1.60
2023-06-09T20:51:08.536Z,1.70
2023-06-09T20:53:38.674Z,1.80
2023-06-09T20:56:06.550Z,1.50
2023-06-09T20:58:34.572Z,1.90
2023-06-09T21:01:02.480Z,1.80
2023-06-09T21:03:38.963Z,1.60
2023-06-09T21:06:07.540Z,1.50
2023-06-09T21:08:35.720Z,1.70
2023-06-09T21:11:03.752Z,2.00
2023-06-09T21:13:32.745Z,1.60
2023-06-09T21:16:00.785Z,1.50
2023-06-09T21:18:28.713Z,1.70
2023-06-09T21:20:56.684Z,1.90
2023-06-09T21:23:25.333Z,2.00
2023-06-09T21:25:53.338Z,1.70
2023-06-09T21:28:21.211Z,1.70
2023-06-09T21:30:49.168Z,1.70
2023-06-09T21:33:17.088Z,1.60
2023-06-09T21:35:45.211Z,1.50
2023-06-09T21:38:13.104Z,1.70
2023-06-09T21:40:41.048Z,2.00
2023-06-09T21:43:09.441Z,1.90
2023-06-09T21:45:37.494Z,1.70
2023-06-09T21:48:05.757Z,1.80
2023-06-09T21:50:33.804Z,1.80
2023-06-09T21:53:02.168Z,1.80
2023-06-09T21:55:30.071Z,1.70
2023-06-09T21:58:01.925Z,1.60
2023-06-09T22:00:31.919Z,1.70
2023-06-09T22:03:01.684Z,2.00
2023-06-09T22:05:30.003Z,1.80
2023-06-09T22:07:57.868Z,1.80
2023-06-09T22:10:26.300Z,1.70
2023-06-09T22:12:54.285Z,1.70
2023-06-09T22:15:22.347Z,1.80
2023-06-09T22:17:50.264Z,1.90
2023-06-09T22:20:18.129Z,1.90
2023-06-09T22:22:45.980Z,1.80
2023-06-09T22:25:13.863Z,1.60
2023-06-09T22:27:41.925Z,1.70
2023-06-09T22:30:10.430Z,2.00
2023-06-09T22:32:38.290Z,2.00
2023-06-09T22:35:06.665Z,2.20
2023-06-09T22:37:35.109Z,2.50
2023-06-09T22:40:04.507Z,2.20
2023-06-09T22:42:32.595Z,2.40
2023-06-09T22:45:00.850Z,2.40
2023-06-09T22:47:28.814Z,2.10
2023-06-09T22:50:11.164Z,2.40
2023-06-09T22:52:46.353Z,2.00
2023-06-09T22:55:16.559Z,1.90
2023-06-09T22:57:49.817Z,1.90
2023-06-09T23:00:23.608Z,2.20
2023-06-09T23:02:52.981Z,2.50
2023-06-09T23:05:32.607Z,1.90
2023-06-09T23:08:01.047Z,2.40
2023-06-09T23:10:28.925Z,2.70
2023-06-09T23:12:56.900Z,2.30
2023-06-09T23:15:24.996Z,2.10
2023-06-09T23:17:53.810Z,2.20
2023-06-09T23:20:23.237Z,1.90
2023-06-09T23:22:54.080Z,2.10
2023-06-09T23:25:23.453Z,2.60
2023-06-09T23:27:51.965Z,2.80
2023-06-09T23:30:19.913Z,2.20
2023-06-09T23:32:47.969Z,2.00
2023-06-09T23:35:18.235Z,2.40
2023-06-09T23:37:47.072Z,2.60
2023-06-09T23:40:15.460Z,2.30
2023-06-09T23:42:43.320Z,2.50
2023-06-09T23:45:12.092Z,2.30
2023-06-09T23:47:40.238Z,2.40
2023-06-09T23:50:08.633Z,2.30
2023-06-09T23:52:37.232Z,2.40
2023-06-09T23:55:06.070Z,2.10
2023-06-09T23:57:34.868Z,2.10
